createdAt,value
2023-03-21T00:01:04.826Z,6.17
2023-03-21T00:03:33.553Z,6.13
2023-03-21T00:06:01.257Z,6.23
2023-03-21T00:08:28.687Z,6.57
2023-03-21T00:10:56.688Z,5.97
2023-03-21T00:13:24.092Z,5.93
2023-03-21T00:16:05.636Z,5.87
2023-03-21T00:18:41.917Z,5.77
2023-03-21T00:21:39.219Z,5.97
2023-03-21T00:23:58.544Z,6.50
2023-03-21T00:26:25.910Z,7.03
2023-03-21T00:28:53.372Z,6.50
2023-03-21T00:31:21.383Z,6.73
2023-03-21T00:33:51.778Z,6.70
2023-03-21T00:36:19.336Z,7.97
2023-03-21T00:38:46.951Z,7.63
2023-03-21T00:41:25.823Z,8.33
2023-03-21T00:43:55.469Z,7.37
2023-03-21T00:46:25.217Z,8.10
2023-03-21T00:48:54.078Z,8.13
2023-03-21T00:51:26.278Z,7.30
2023-03-21T00:53:54.795Z,6.80
2023-03-21T00:56:22.512Z,7.87
2023-03-21T00:58:51.135Z,6.40
2023-03-21T01:01:18.538Z,6.50
2023-03-21T01:03:51.170Z,7.50
2023-03-21T01:06:20.502Z,7.47
2023-03-21T01:08:52.799Z,7.00
2023-03-21T01:11:22.541Z,6.80
2023-03-21T01:14:20.962Z,7.30
2023-03-21T01:16:37.511Z,7.43
2023-03-21T01:19:09.435Z,6.83
2023-03-21T01:21:43.676Z,5.80
2023-03-21T01:24:11.792Z,6.50
2023-03-21T01:26:39.168Z,7.40
2023-03-21T01:29:07.055Z,6.17
2023-03-21T01:31:34.559Z,7.23
2023-03-21T01:34:02.062Z,6.43
2023-03-21T01:36:29.461Z,6.40
2023-03-21T01:39:03.680Z,6.73
2023-03-21T01:41:47.486Z,7.07
2023-03-21T01:44:24.313Z,6.57
2023-03-21T01:47:09.297Z,6.60
2023-03-21T01:49:46.882Z,6.70
2023-03-21T01:52:33.388Z,7.67
2023-03-21T01:55:06.993Z,7.17
2023-03-21T01:57:55.234Z,7.00
2023-03-21T02:00:32.741Z,6.63
2023-03-21T02:03:26.318Z,6.60
2023-03-21T02:06:12.233Z,6.90
2023-03-21T02:08:42.612Z,6.63
2023-03-21T02:11:16.441Z,6.93
2023-03-21T02:13:44.447Z,7.03
2023-03-21T02:16:18.229Z,7.23
2023-03-21T02:18:50.627Z,6.33
2023-03-21T02:21:25.746Z,6.50
2023-03-21T02:24:08.717Z,6.60
2023-03-21T02:27:03.394Z,6.43
2023-03-21T02:29:50.174Z,5.83
2023-03-21T02:32:36.542Z,6.70
2023-03-21T02:35:16.559Z,6.07
2023-03-21T02:37:55.200Z,5.57
2023-03-21T02:40:31.176Z,5.77
2023-03-21T02:43:03.080Z,5.77
2023-03-21T02:45:37.335Z,6.00
2023-03-21T02:48:10.086Z,6.10
2023-03-21T02:50:41.820Z,6.43
2023-03-21T02:53:12.216Z,6.37
2023-03-21T02:55:42.369Z,6.37
2023-03-21T02:58:13.477Z,5.40
2023-03-21T03:00:50.378Z,6.67
2023-03-21T03:03:34.322Z,6.37
2023-03-21T03:06:06.390Z,6.07
2023-03-21T03:08:53.047Z,6.67
2023-03-21T03:11:29.403Z,6.63
2023-03-21T03:14:43.894Z,5.97
2023-03-21T03:17:18.103Z,7.00
2023-03-21T03:19:51.524Z,6.30
2023-03-21T03:22:24.426Z,6.53
2023-03-21T03:24:57.135Z,6.17
2023-03-21T03:27:26.978Z,6.10
2023-03-21T03:29:54.730Z,5.53
2023-03-21T03:32:30.350Z,5.37
2023-03-21T03:34:58.839Z,5.43
2023-03-21T03:37:34.214Z,5.13
2023-03-21T03:40:06.503Z,4.90
2023-03-21T03:42:39.368Z,4.53
2023-03-21T03:45:20.827Z,4.40
2023-03-21T03:47:57.174Z,4.50
2023-03-21T03:50:30.869Z,4.40
2023-03-21T03:53:07.091Z,4.00
2023-03-21T03:55:38.922Z,3.80
2023-03-21T03:58:22.838Z,4.20
2023-03-21T04:00:52.995Z,3.50
2023-03-21T04:03:20.678Z,3.90
2023-03-21T04:05:49.054Z,3.40
2023-03-21T04:08:17.654Z,3.80
2023-03-21T04:10:51.801Z,3.60
2023-03-21T04:13:20.194Z,3.17
2023-03-21T04:16:01.320Z,3.50
2023-03-21T04:18:28.777Z,3.77
2023-03-21T04:20:56.406Z,3.63
2023-03-21T04:23:29.216Z,3.90
2023-03-21T04:25:57.940Z,3.60
2023-03-21T04:28:36.127Z,3.57
2023-03-21T04:31:26.425Z,3.70
2023-03-21T04:34:03.449Z,3.77
2023-03-21T04:36:38.823Z,3.90
2023-03-21T04:39:12.197Z,3.43
2023-03-21T04:41:41.600Z,3.50
2023-03-21T04:44:09.708Z,3.53
2023-03-21T04:46:38.258Z,3.43
2023-03-21T04:49:07.676Z,3.17
2023-03-21T04:51:35.796Z,4.23
2023-03-21T04:54:05.817Z,4.20
2023-03-21T04:56:34.047Z,3.80
2023-03-21T04:59:04.047Z,3.67
2023-03-21T05:01:31.583Z,3.53
2023-03-21T05:03:59.257Z,3.37
2023-03-21T05:06:27.743Z,3.50
2023-03-21T05:08:56.739Z,3.87
2023-03-21T05:11:24.120Z,3.30
2023-03-21T05:13:51.508Z,4.27
2023-03-21T05:16:20.321Z,3.80
2023-03-21T05:18:50.600Z,4.30
2023-03-21T05:21:20.405Z,4.10
2023-03-21T05:23:54.256Z,4.33
2023-03-21T05:26:22.701Z,4.20
2023-03-21T05:29:00.005Z,3.93
2023-03-21T05:31:28.851Z,4.60
2023-03-21T05:34:06.188Z,4.87
2023-03-21T05:36:35.988Z,4.63
2023-03-21T05:39:06.350Z,4.43
2023-03-21T05:41:37.156Z,3.97
2023-03-21T05:44:05.923Z,4.80
2023-03-21T05:46:34.689Z,4.73
2023-03-21T05:49:02.754Z,5.43
2023-03-21T05:51:30.308Z,5.00
2023-03-21T05:53:57.742Z,4.63
2023-03-21T05:56:26.017Z,4.87
2023-03-21T05:58:57.805Z,4.73
2023-03-21T06:01:25.856Z,4.57
2023-03-21T06:04:03.323Z,4.23
2023-03-21T06:06:30.792Z,4.00
2023-03-21T06:09:01.778Z,4.17
2023-03-21T06:11:31.741Z,4.30
2023-03-21T06:14:18.512Z,4.50
2023-03-21T06:16:51.066Z,4.07
2023-03-21T06:19:19.870Z,4.30
2023-03-21T06:22:03.439Z,4.47
2023-03-21T06:24:32.493Z,4.40
2023-03-21T06:27:02.808Z,4.50
2023-03-21T06:29:39.856Z,3.57
2023-03-21T06:32:08.368Z,3.87
2023-03-21T06:34:39.304Z,5.00
2023-03-21T06:37:06.962Z,4.23
2023-03-21T06:39:35.569Z,4.20
2023-03-21T06:42:03.230Z,4.50
2023-03-21T06:44:30.961Z,4.47
2023-03-21T06:47:03.493Z,4.33
2023-03-21T06:49:31.367Z,5.13
2023-03-21T06:52:07.358Z,4.60
2023-03-21T06:54:36.089Z,4.63
2023-03-21T06:57:10.413Z,4.67
2023-03-21T06:59:41.521Z,4.57
2023-03-21T07:02:11.396Z,4.50
2023-03-21T07:04:45.311Z,4.63
2023-03-21T07:07:19.432Z,4.40
2023-03-21T07:09:47.466Z,4.20
2023-03-21T07:12:16.000Z,4.97
2023-03-21T07:15:04.289Z,4.50
2023-03-21T07:17:34.121Z,4.63
2023-03-21T07:20:01.501Z,4.23
2023-03-21T07:22:30.785Z,4.77
2023-03-21T07:25:04.716Z,4.40
2023-03-21T07:27:40.799Z,4.63
2023-03-21T07:30:09.671Z,4.80
2023-03-21T07:32:37.957Z,4.20
2023-03-21T07:35:06.927Z,5.07
2023-03-21T07:37:37.825Z,4.97
2023-03-21T07:40:10.441Z,5.20
2023-03-21T07:42:39.121Z,5.57
2023-03-21T07:45:07.764Z,6.10
2023-03-21T07:47:35.460Z,6.13
2023-03-21T07:50:04.400Z,5.53
2023-03-21T07:52:32.260Z,5.47
2023-03-21T07:55:00.938Z,5.43
2023-03-21T07:57:28.294Z,4.13
2023-03-21T07:59:55.620Z,4.90
2023-03-21T08:02:23.053Z,4.73
2023-03-21T08:04:50.520Z,4.63
2023-03-21T08:07:17.887Z,5.03
2023-03-21T08:09:45.354Z,4.50
2023-03-21T08:12:14.181Z,4.60
2023-03-21T08:14:41.521Z,4.03
2023-03-21T08:17:09.479Z,4.20
2023-03-21T08:19:37.401Z,4.07
2023-03-21T08:22:06.870Z,4.60
2023-03-21T08:24:34.786Z,4.70
2023-03-21T08:27:02.346Z,4.70
2023-03-21T08:29:31.114Z,4.00
2023-03-21T08:31:58.989Z,4.30
2023-03-21T08:34:26.663Z,3.67
2023-03-21T08:36:54.498Z,3.73
2023-03-21T08:39:22.459Z,3.03
2023-03-21T08:41:49.845Z,3.53
2023-03-21T08:44:17.871Z,3.97
2023-03-21T08:46:46.568Z,3.57
2023-03-21T08:49:13.937Z,3.83
2023-03-21T08:51:41.312Z,3.50
2023-03-21T08:54:08.689Z,4.27
2023-03-21T08:56:37.472Z,3.77
2023-03-21T08:59:04.972Z,3.70
2023-03-21T09:01:32.468Z,4.17
2023-03-21T09:04:01.151Z,3.60
2023-03-21T09:06:29.948Z,3.87
2023-03-21T09:08:57.293Z,3.63
2023-03-21T09:11:24.624Z,4.00
2023-03-21T09:13:52.478Z,3.63
2023-03-21T09:16:19.990Z,4.07
2023-03-21T09:18:49.471Z,3.97
2023-03-21T09:21:21.018Z,4.17
2023-03-21T09:23:48.730Z,4.67
2023-03-21T09:26:16.164Z,3.87
2023-03-21T09:28:43.669Z,4.00
2023-03-21T09:31:12.160Z,4.07
2023-03-21T09:33:41.313Z,3.60
2023-03-21T09:36:14.446Z,2.83
2023-03-21T09:38:45.525Z,2.50
2023-03-21T09:41:21.576Z,2.87
2023-03-21T09:43:58.814Z,2.73
2023-03-21T09:46:31.748Z,2.67
2023-03-21T09:49:00.955Z,3.20
2023-03-21T09:51:30.194Z,2.97
2023-03-21T09:54:00.575Z,2.20
2023-03-21T09:56:28.036Z,2.63
2023-03-21T09:58:56.769Z,2.60
2023-03-21T10:01:29.778Z,3.00
2023-03-21T10:03:58.905Z,2.57
2023-03-21T10:06:30.597Z,2.50
2023-03-21T10:09:01.378Z,2.50
2023-03-21T10:11:30.171Z,2.70
2023-03-21T10:14:00.190Z,2.23
2023-03-21T10:16:29.453Z,2.17
2023-03-21T10:18:57.009Z,2.47
2023-03-21T10:21:51.440Z,2.47
2023-03-21T10:24:16.097Z,2.00
2023-03-21T10:26:43.901Z,2.10
2023-03-21T10:29:13.806Z,2.33
2023-03-21T10:31:42.859Z,2.33
2023-03-21T10:34:13.659Z,2.40
2023-03-21T10:36:41.000Z,2.10
2023-03-21T10:39:12.491Z,2.33
2023-03-21T10:41:41.399Z,2.10
2023-03-21T10:44:10.724Z,2.00
2023-03-21T10:46:38.431Z,2.47
2023-03-21T10:49:08.155Z,2.47
2023-03-21T10:51:37.542Z,2.17
2023-03-21T10:54:06.389Z,2.13
2023-03-21T10:56:37.252Z,1.80
2023-03-21T10:59:06.499Z,1.90
2023-03-21T11:01:36.388Z,1.80
2023-03-21T11:04:07.714Z,1.90
2023-03-21T11:06:38.569Z,2.17
2023-03-21T11:09:08.514Z,1.83
2023-03-21T11:11:38.140Z,1.60
2023-03-21T11:14:09.183Z,1.70
2023-03-21T11:16:40.808Z,1.90
2023-03-21T11:19:15.332Z,1.90
2023-03-21T11:21:42.822Z,1.70
2023-03-21T11:24:14.758Z,1.90
2023-03-21T11:26:44.463Z,1.77
2023-03-21T11:29:24.089Z,1.57
2023-03-21T11:31:52.116Z,1.60
2023-03-21T11:34:27.022Z,1.80
2023-03-21T11:36:58.901Z,1.60
2023-03-21T11:39:31.027Z,1.63
2023-03-21T11:41:58.647Z,1.80
2023-03-21T11:44:28.793Z,1.70
2023-03-21T11:46:56.326Z,1.53
2023-03-21T11:49:24.725Z,1.87
2023-03-21T11:51:57.256Z,1.27
2023-03-21T11:54:28.158Z,1.53
2023-03-21T11:56:57.626Z,1.57
2023-03-21T11:59:32.698Z,1.47
2023-03-21T12:02:12.181Z,1.63
2023-03-21T12:04:41.701Z,1.43
2023-03-21T12:07:20.042Z,1.70
2023-03-21T12:09:51.306Z,1.40
2023-03-21T12:12:36.539Z,1.90
2023-03-21T12:15:11.524Z,1.80
2023-03-21T12:17:44.241Z,1.50
2023-03-21T12:20:29.997Z,1.20
2023-03-21T12:23:04.970Z,1.30
2023-03-21T12:25:34.086Z,1.60
2023-03-21T12:28:06.610Z,1.40
2023-03-21T12:30:42.814Z,1.47
2023-03-21T12:33:15.630Z,1.40
2023-03-21T12:35:48.410Z,1.40
2023-03-21T12:38:17.565Z,1.13
2023-03-21T12:40:49.327Z,1.30
2023-03-21T12:43:25.318Z,1.50
2023-03-21T12:45:55.776Z,1.47
2023-03-21T12:48:25.563Z,1.63
2023-03-21T12:50:55.310Z,1.40
2023-03-21T12:53:35.563Z,1.30
2023-03-21T12:56:06.082Z,1.60
2023-03-21T12:58:38.562Z,1.23
2023-03-21T13:01:08.522Z,1.67
2023-03-21T13:03:40.496Z,1.10
2023-03-21T13:06:10.244Z,1.10
2023-03-21T13:08:38.612Z,1.30
2023-03-21T13:11:06.618Z,0.97
2023-03-21T13:13:35.957Z,1.13
2023-03-21T13:16:05.854Z,1.10
2023-03-21T13:18:41.077Z,0.90
2023-03-21T13:21:13.444Z,0.80
2023-03-21T13:23:40.956Z,1.30
2023-03-21T13:26:11.156Z,0.97
2023-03-21T13:28:40.159Z,0.77
2023-03-21T13:31:18.500Z,0.83
2023-03-21T13:33:48.246Z,0.70
2023-03-21T13:36:16.498Z,1.20
2023-03-21T13:38:50.668Z,0.60
2023-03-21T13:41:19.740Z,0.77
2023-03-21T13:43:52.845Z,0.60
2023-03-21T13:46:50.356Z,0.60
2023-03-21T13:49:28.069Z,0.90
2023-03-21T13:51:56.182Z,0.50
2023-03-21T13:54:27.373Z,0.70
2023-03-21T13:56:57.762Z,0.70
2023-03-21T13:59:40.104Z,0.60
2023-03-21T14:02:22.315Z,0.60
2023-03-21T14:05:04.895Z,0.80
2023-03-21T14:07:34.478Z,0.60
2023-03-21T14:10:05.026Z,0.60
2023-03-21T14:12:37.968Z,0.50
2023-03-21T14:15:16.376Z,0.77
2023-03-21T14:17:50.694Z,0.63
2023-03-21T14:20:21.555Z,0.50
2023-03-21T14:22:50.143Z,0.60
2023-03-21T14:25:21.084Z,0.60
2023-03-21T14:27:50.291Z,0.50
2023-03-21T14:30:23.709Z,0.70
2023-03-21T14:32:54.470Z,0.70
2023-03-21T14:35:23.286Z,0.50
2023-03-21T14:37:51.372Z,0.83
2023-03-21T14:40:21.556Z,0.60
2023-03-21T14:42:50.559Z,0.50
2023-03-21T14:45:20.848Z,0.50
2023-03-21T14:47:59.031Z,0.50
2023-03-21T14:50:30.201Z,0.70
2023-03-21T14:52:58.247Z,0.67
2023-03-21T14:55:26.221Z,0.70
2023-03-21T14:57:55.461Z,0.70
2023-03-21T15:00:27.251Z,0.77
2023-03-21T15:02:55.330Z,0.50
2023-03-21T15:05:25.544Z,0.60
2023-03-21T15:07:58.376Z,0.83
2023-03-21T15:10:28.923Z,1.17
2023-03-21T15:12:57.129Z,1.70
2023-03-21T15:15:27.432Z,0.90
2023-03-21T15:17:56.412Z,1.40
2023-03-21T15:20:26.173Z,1.40
2023-03-21T15:22:56.349Z,0.93
2023-03-21T15:25:26.825Z,0.90
2023-03-21T15:27:55.911Z,0.83
2023-03-21T15:30:24.835Z,0.70
2023-03-21T15:32:52.431Z,1.20
2023-03-21T15:35:22.054Z,0.83
2023-03-21T15:37:56.649Z,0.90
2023-03-21T15:40:25.137Z,0.80
2023-03-21T15:42:52.793Z,0.57
2023-03-21T15:45:22.361Z,0.60
2023-03-21T15:47:54.386Z,0.60
2023-03-21T15:50:29.772Z,0.80
2023-03-21T15:53:00.231Z,0.90
2023-03-21T15:55:29.534Z,1.00
2023-03-21T15:58:00.914Z,0.80
2023-03-21T16:00:35.780Z,1.53
2023-03-21T16:03:06.417Z,0.70
2023-03-21T16:05:34.737Z,0.97
2023-03-21T16:08:06.880Z,0.70
2023-03-21T16:10:36.695Z,0.70
2023-03-21T16:13:04.934Z,0.73
2023-03-21T16:15:32.614Z,1.33
2023-03-21T16:18:00.997Z,2.93
2023-03-21T16:20:29.481Z,1.50
2023-03-21T16:22:57.092Z,0.93
2023-03-21T16:25:26.045Z,1.00
2023-03-21T16:27:53.400Z,0.90
2023-03-21T16:30:22.063Z,0.97
2023-03-21T16:32:49.874Z,0.73
2023-03-21T16:35:17.895Z,1.00
2023-03-21T16:37:45.482Z,0.90
2023-03-21T16:40:16.930Z,0.93
2023-03-21T16:42:45.893Z,1.40
2023-03-21T16:45:13.312Z,2.23
2023-03-21T16:47:40.895Z,2.00
2023-03-21T16:50:19.989Z,1.93
2023-03-21T16:52:47.607Z,1.37
2023-03-21T16:55:15.343Z,1.40
2023-03-21T16:57:43.068Z,1.30
2023-03-21T17:00:14.003Z,1.33
2023-03-21T17:02:41.560Z,1.40
2023-03-21T17:05:11.461Z,1.43
2023-03-21T17:07:38.924Z,1.10
2023-03-21T17:10:11.130Z,1.17
2023-03-21T17:12:38.534Z,1.07
2023-03-21T17:15:06.362Z,1.40
2023-03-21T17:17:35.083Z,1.20
2023-03-21T17:20:04.086Z,1.20
2023-03-21T17:22:31.485Z,1.17
2023-03-21T17:24:58.979Z,1.20
2023-03-21T17:27:27.077Z,1.10
2023-03-21T17:29:54.953Z,1.10
2023-03-21T17:32:22.600Z,1.10
2023-03-21T17:34:53.140Z,1.10
2023-03-21T17:37:21.909Z,1.00
2023-03-21T17:39:49.578Z,1.70
2023-03-21T17:42:18.205Z,2.10
2023-03-21T17:44:45.739Z,1.40
2023-03-21T17:47:13.273Z,1.50
2023-03-21T17:49:41.200Z,3.10
2023-03-21T17:52:09.890Z,4.00
2023-03-21T17:54:37.523Z,3.57
2023-03-21T17:57:04.898Z,3.83
2023-03-21T17:59:32.223Z,3.30
2023-03-21T18:01:59.608Z,6.23
2023-03-21T18:04:27.068Z,3.73
2023-03-21T18:06:57.376Z,3.87
2023-03-21T18:09:26.691Z,2.60
2023-03-21T18:11:54.164Z,2.13
2023-03-21T18:14:27.963Z,3.03
2023-03-21T18:16:56.169Z,3.20
2023-03-21T18:19:23.800Z,3.60
2023-03-21T18:21:52.519Z,4.43
2023-03-21T18:24:19.860Z,3.67
2023-03-21T18:26:48.723Z,2.90
2023-03-21T18:30:17.876Z,2.10
2023-03-21T18:32:08.265Z,2.00
2023-03-21T18:34:38.090Z,2.07
2023-03-21T18:37:07.548Z,2.07
2023-03-21T18:39:35.261Z,2.50
2023-03-21T18:42:05.280Z,2.50
2023-03-21T18:44:37.489Z,2.83
2023-03-21T18:47:06.433Z,4.17
2023-03-21T18:52:22.198Z,3.63
2023-03-21T18:54:49.918Z,3.90
2023-03-21T18:57:37.416Z,3.73
2023-03-21T19:00:43.750Z,2.20
2023-03-21T19:03:24.921Z,1.97
2023-03-21T19:06:00.448Z,1.87
2023-03-21T19:08:28.043Z,2.43
2023-03-21T19:10:59.558Z,3.50
2023-03-21T19:13:30.288Z,3.00
2023-03-21T19:15:57.717Z,2.80
2023-03-21T19:18:44.961Z,2.17
2023-03-21T19:21:13.483Z,2.23
2023-03-21T19:24:16.467Z,1.73
2023-03-21T19:26:28.468Z,2.30
2023-03-21T19:28:57.349Z,1.77
2023-03-21T19:31:25.128Z,2.30
2023-03-21T19:33:52.654Z,1.93
2023-03-21T19:36:22.897Z,2.27
2023-03-21T19:38:50.934Z,2.50
2023-03-21T19:41:18.346Z,2.13
2023-03-21T19:43:54.195Z,2.13
2023-03-21T19:46:25.153Z,2.43
2023-03-21T19:48:56.143Z,3.23
2023-03-21T19:51:28.773Z,2.50
2023-03-21T19:53:57.399Z,2.50
2023-03-21T19:56:27.268Z,2.53
2023-03-21T19:58:54.804Z,2.80
2023-03-21T20:01:24.101Z,2.73
2023-03-21T20:03:51.577Z,3.13
2023-03-21T20:06:19.369Z,2.70
2023-03-21T20:09:33.954Z,3.00
2023-03-21T20:11:34.618Z,3.00
2023-03-21T20:14:05.467Z,3.23
2023-03-21T20:16:36.392Z,2.50
2023-03-21T20:19:04.461Z,2.73
2023-03-21T20:21:40.121Z,2.60
2023-03-21T20:24:12.854Z,2.37
2023-03-21T20:26:40.736Z,2.77
2023-03-21T20:29:56.472Z,2.60
2023-03-21T20:31:57.463Z,2.40
2023-03-21T20:34:24.911Z,2.20
2023-03-21T20:36:53.169Z,2.57
2023-03-21T20:39:20.576Z,2.60
2023-03-21T20:41:47.992Z,2.53
2023-03-21T20:47:06.571Z,2.17
2023-03-21T20:49:34.003Z,2.47
2023-03-21T20:54:51.611Z,2.37
2023-03-21T20:57:20.092Z,2.50
2023-03-21T20:59:48.484Z,2.47
2023-03-21T21:02:17.192Z,2.70
2023-03-21T21:05:11.842Z,2.97
2023-03-21T21:07:32.263Z,3.03
2023-03-21T21:09:59.858Z,2.60
2023-03-21T21:12:27.629Z,2.27
2023-03-21T21:14:55.162Z,2.30
2023-03-21T21:17:46.684Z,3.00
2023-03-21T21:20:16.159Z,2.77
2023-03-21T21:22:46.058Z,2.67
2023-03-21T21:25:24.245Z,2.67
2023-03-21T21:27:54.657Z,3.07
2023-03-21T21:30:22.549Z,2.60
2023-03-21T21:32:51.488Z,3.00
2023-03-21T21:35:20.490Z,3.20
2023-03-21T21:37:47.985Z,2.77
2023-03-21T21:40:20.319Z,2.57
2023-03-21T21:42:47.810Z,2.20
2023-03-21T21:45:15.621Z,2.17
2023-03-21T21:47:44.432Z,2.07
2023-03-21T21:50:13.516Z,2.50
2023-03-21T21:52:43.471Z,2.80
2023-03-21T21:55:10.909Z,2.17
2023-03-21T21:57:39.685Z,2.53
2023-03-21T22:00:13.368Z,2.20
2023-03-21T22:02:42.480Z,2.40
2023-03-21T22:05:10.669Z,1.67
2023-03-21T22:07:39.372Z,2.70
2023-03-21T22:10:07.987Z,2.30
2023-03-21T22:12:35.486Z,2.10
2023-03-21T22:15:03.934Z,2.07
2023-03-21T22:17:31.662Z,2.40
2023-03-21T22:20:06.104Z,2.90
2023-03-21T22:22:33.942Z,2.90
2023-03-21T22:25:02.963Z,3.37
2023-03-21T22:27:30.459Z,3.23
2023-03-21T22:29:57.804Z,3.37
2023-03-21T22:32:25.490Z,3.23
2023-03-21T22:34:52.996Z,3.00
2023-03-21T22:37:20.329Z,3.27
2023-03-21T22:39:47.727Z,3.20
2023-03-21T22:42:16.514Z,2.73
2023-03-21T22:44:43.881Z,3.03
2023-03-21T22:47:11.673Z,2.80
2023-03-21T22:49:39.777Z,3.00
2023-03-21T22:52:07.297Z,2.90
2023-03-21T22:54:34.771Z,3.10
2023-03-21T22:57:02.131Z,3.43
2023-03-21T22:59:31.023Z,3.33
2023-03-21T23:01:58.866Z,3.33
2023-03-21T23:04:27.280Z,3.77
2023-03-21T23:06:55.278Z,3.33
2023-03-21T23:09:22.827Z,4.07
2023-03-21T23:11:50.246Z,4.37
2023-03-21T23:14:19.287Z,4.50
2023-03-21T23:16:47.979Z,4.60
2023-03-21T23:19:15.922Z,3.70
2023-03-21T23:21:44.283Z,4.00
2023-03-21T23:24:12.106Z,3.93
2023-03-21T23:26:39.493Z,4.07
2023-03-21T23:29:09.195Z,4.00
2023-03-21T23:31:36.919Z,4.10
2023-03-21T23:34:06.052Z,4.00
2023-03-21T23:36:33.511Z,4.00
2023-03-21T23:39:01.094Z,3.63
2023-03-21T23:41:28.493Z,3.33
2023-03-21T23:43:55.871Z,3.13
2023-03-21T23:46:23.286Z,3.20
2023-03-21T23:48:51.649Z,3.70
2023-03-21T23:51:20.443Z,3.40
2023-03-21T23:53:48.580Z,2.90
2023-03-21T23:56:17.051Z,2.77
2023-03-21T23:58:44.865Z,3.20
